Time;durP1;ratioP1;P1;durP2;ratioP2;P2;SDS_P1;SDS_P2;PMS_P1;PMS_P2;Temp;Humidity;BMP_temperature;BMP_pressure;BME280_temperature;BME280_humidity;BME280_pressure;Samples;Min_cycle;Max_cycle;Signal;HPM_P1;HPM_P2
2022/10/11 00:01:44;;;;;;;9.27;3.63;;;;;;;;;;6236784;23;20023;-85
2022/10/11 00:10:17;;;;;;;9.80;3.28;;;;;;;;;;6147537;23;20271;-86
2022/10/11 00:12:44;;;;;;;14.88;3.90;;;;;;;;;;6207179;23;20015;-86
2022/10/11 00:15:32;;;;;;;;;;;;;;;;;;;;;
2022/10/11 00:18:19;;;;;;;15.27;4.22;;;;;;;;;;6234831;23;20073;-86
2022/10/11 00:21:31;;;;;;;15.70;3.00;;;;;;;;;;6236740;23;20067;-86
2022/10/11 00:24:36;;;;;;;;;;;;;;;;;;;;;
2022/10/11 00:27:44;;;;;;;18.00;3.35;;;;;;;;;;6083065;23;20773;-85
2022/10/11 00:33:21;;;;;;;7.72;2.20;;;;;;;;;;6072174;23;20025;-85
2022/10/11 00:41:56;;;;;;;7.10;1.92;;;;;;;;;;6225276;23;20031;-86
2022/10/11 00:50:43;;;;;;;5.78;2.20;;;;;;;;;;6050004;23;20015;-85
2022/10/11 00:53:14;;;;;;;10.10;2.75;;;;;;;;;;6154068;23;20100;-86
2022/10/11 00:58:30;;;;;;;5.72;2.55;;;;;;;;;;6206820;23;20028;-85
2022/10/11 01:01:09;;;;;;;11.00;2.30;;;;;;;;;;6210805;23;20151;-85
2022/10/11 01:04:08;;;;;;;;;;;;;;;;;;6209588;23;20026;-86
2022/10/11 01:09:38;;;;;;;10.63;2.78;;;;;;;;;;6200431;23;20026;-86
2022/10/11 01:12:35;;;;;;;;;;;;;;;;;;;;;
2022/10/11 01:15:13;;;;;;;7.22;2.53;;;;;;;;;;6236169;23;20079;-86
2022/10/11 01:20:50;;;;;;;9.32;2.40;;;;;;;;;;6233750;23;20052;-85
2022/10/11 01:23:43;;;;;;;11.88;2.00;;;;;;;;;;6237555;23;20047;-85
2022/10/11 01:26:29;;;;;;;7.35;2.85;;;;;;;;;;6165761;23;20020;-86
2022/10/11 01:29:22;;;;;;;9.02;2.17;;;;;;;;;;6238079;23;20079;-86
2022/10/11 01:32:04;;;;;;;10.15;1.92;;;;;;;;;;6211751;23;20107;-86
2022/10/11 01:34:41;;;;;;;15.93;2.42;;;;;;;;;;6211499;23;20061;-86
2022/10/11 01:40:06;;;;;;;13.23;2.60;;;;;;;;;;6246932;23;20022;-86
2022/10/11 01:46:12;;;;;;;9.23;2.60;;;;;;;;;;6125517;23;20138;-86
2022/10/11 01:49:15;;;;;;;9.13;2.67;;;;;;;;;;6089186;23;20022;-86
2022/10/11 01:55:02;;;;;;;;;;;;;;;;;;6197650;23;20477;-86
2022/10/11 02:00:40;;;;;;;11.68;2.50;;;;;;;;;;6191153;23;20048;-86
2022/10/11 02:06:30;;;;;;;4.88;2.00;;;;;;;;;;6225844;23;20044;-86
2022/10/11 02:17:08;;;;;;;12.45;2.40;;;;;;;;;;6207869;23;20114;-86
2022/10/11 02:25:45;;;;;;;7.07;2.35;;;;;;;;;;6235345;23;20055;-86
2022/10/11 02:28:42;;;;;;;10.25;2.38;;;;;;;;;;6236943;23;20035;-86
2022/10/11 02:31:10;;;;;;;9.82;2.28;;;;;;;;;;6239413;23;20023;-86
2022/10/11 02:37:09;;;;;;;;;;;;;;;;;;6153805;23;20383;-86
2022/10/11 02:46:09;;;;;;;11.25;2.47;;;;;;;;;;6233387;23;20023;-86
2022/10/11 02:51:42;;;;;;;8.00;1.90;;;;;;;;;;6222077;23;20104;-86
2022/10/11 02:54:26;;;;;;;12.48;3.05;;;;;;;;;;6237794;23;20062;-86
2022/10/11 02:57:09;;;;;;;7.25;2.30;;;;;;;;;;6209149;23;20019;-87
2022/10/11 02:59:52;;;;;;;10.02;2.80;;;;;;;;;;6212222;23;20119;-86
2022/10/11 03:02:20;;;;;;;6.93;2.35;;;;;;;;;;6210946;23;20030;-86
2022/10/11 03:04:54;;;;;;;7.22;2.30;;;;;;;;;;6237136;23;20020;-87
2022/10/11 03:07:39;;;;;;;8.55;2.65;;;;;;;;;;6237550;23;20020;-86
2022/10/11 03:10:30;;;;;;;6.65;2.38;;;;;;;;;;6249241;23;20012;-87
2022/10/11 03:13:11;;;;;;;8.82;2.72;;;;;;;;;;6114931;23;20041;-86
2022/10/11 03:18:45;;;;;;;8.10;2.83;;;;;;;;;;6098327;23;20338;-86
2022/10/11 03:24:15;;;;;;;9.30;3.20;;;;;;;;;;6230435;23;20052;-85
2022/10/11 03:26:43;;;;;;;9.43;2.72;;;;;;;;;;6207987;23;20031;-86
2022/10/11 03:32:19;;;;;;;11.15;2.55;;;;;;;;;;6219075;23;20022;-86
2022/10/11 03:34:55;;;;;;;8.27;2.90;;;;;;;;;;6209223;23;20062;-87
2022/10/11 03:40:26;;;;;;;12.85;3.38;;;;;;;;;;6114691;23;20014;-85
2022/10/11 03:46:18;;;;;;;8.05;2.33;;;;;;;;;;6109430;23;20025;-86
2022/10/11 04:00:45;;;;;;;10.50;2.45;;;;;;;;;;6237796;23;20047;-86
2022/10/11 04:06:43;;;;;;;5.43;2.67;;;;;;;;;;6236702;23;20034;-86
2022/10/11 04:09:22;;;;;;;10.95;2.78;;;;;;;;;;6123952;23;20026;-85
2022/10/11 04:11:57;;;;;;;17.02;3.17;;;;;;;;;;6116010;23;20021;-86
2022/10/11 04:14:53;;;;;;;9.38;2.45;;;;;;;;;;6115048;23;20125;-87
2022/10/11 04:17:38;;;;;;;12.82;2.78;;;;;;;;;;6237434;23;20018;-86
2022/10/11 04:20:29;;;;;;;19.15;3.13;;;;;;;;;;6247931;23;20789;-86
2022/10/11 04:23:01;;;;;;;8.25;2.63;;;;;;;;;;6212024;23;20079;-85
2022/10/11 04:25:52;;;;;;;;;;;;;;;;;;;;;
2022/10/11 04:28:52;;;;;;;7.90;2.67;;;;;;;;;;6231803;23;20727;-85
2022/10/11 04:34:57;;;;;;;8.48;3.53;;;;;;;;;;6236331;23;20473;-85
2022/10/11 04:37:49;;;;;;;7.88;2.97;;;;;;;;;;6247379;23;20092;-85
2022/10/11 04:43:39;;;;;;;11.55;4.30;;;;;;;;;;6207110;23;20028;-87
2022/10/11 04:52:34;;;;;;;14.07;4.20;;;;;;;;;;6114046;23;20029;-85
2022/10/11 04:55:22;;;;;;;16.90;6.40;;;;;;;;;;6225636;23;20026;-84
2022/10/11 04:57:56;;;;;;;13.13;4.53;;;;;;;;;;6123218;23;20056;-85
2022/10/11 05:00:34;;;;;;;;;;;;;;;;;;;;;
2022/10/11 05:03:26;;;;;;;13.13;5.30;;;;;;;;;;6246905;23;20012;-84
2022/10/11 05:06:11;;;;;;;16.20;5.22;;;;;;;;;;6218403;23;20031;-88
2022/10/11 05:08:57;;;;;;;15.65;5.00;;;;;;;;;;6211320;23;20138;-84
2022/10/11 05:12:10;;;;;;;20.42;4.95;;;;;;;;;;6217369;23;20038;-85
2022/10/11 05:15:03;;;;;;;15.43;4.72;;;;;;;;;;6207515;23;20026;-85
2022/10/11 05:17:29;;;;;;;16.00;4.18;;;;;;;;;;6209657;23;20048;-85
2022/10/11 05:20:09;;;;;;;13.02;4.70;;;;;;;;;;6208576;23;20119;-85
2022/10/11 05:22:59;;;;;;;15.40;4.30;;;;;;;;;;6207568;23;20024;-85
2022/10/11 05:25:33;;;;;;;10.65;3.67;;;;;;;;;;6192745;23;20122;-86
2022/10/11 05:28:04;;;;;;;14.65;4.50;;;;;;;;;;6235750;23;20472;-85
2022/10/11 05:33:22;;;;;;;18.05;5.53;;;;;;;;;;6228249;23;20027;-84
2022/10/11 05:35:54;;;;;;;14.73;4.78;;;;;;;;;;6235785;23;20020;-85
2022/10/11 05:38:23;;;;;;;13.38;4.70;;;;;;;;;;6218476;23;20465;-84
2022/10/11 05:41:08;;;;;;;13.95;5.70;;;;;;;;;;6237120;23;20024;-85
2022/10/11 05:43:57;;;;;;;16.60;6.10;;;;;;;;;;6233015;23;20012;-85
2022/10/11 05:46:29;;;;;;;13.82;4.00;;;;;;;;;;6236621;23;20342;-84
2022/10/11 05:48:59;;;;;;;13.15;4.18;;;;;;;;;;6236060;23;20024;-85
2022/10/11 05:52:05;;;;;;;15.75;4.93;;;;;;;;;;6246754;23;20012;-86
2022/10/11 05:54:35;;;;;;;10.90;4.50;;;;;;;;;;6206837;23;20012;-85
2022/10/11 05:57:13;;;;;;;12.05;4.95;;;;;;;;;;6221237;23;20024;-85
2022/10/11 06:00:02;;;;;;;18.70;4.70;;;;;;;;;;6244806;23;20838;-85
2022/10/11 06:03:07;;;;;;;11.65;5.03;;;;;;;;;;6238386;23;20096;-86
2022/10/11 06:08:57;;;;;;;20.45;5.35;;;;;;;;;;6022780;23;20033;-85
2022/10/11 06:17:46;;;;;;;11.75;4.63;;;;;;;;;;6186032;23;20025;-85
2022/10/11 06:26:43;;;;;;;19.08;4.35;;;;;;;;;;6009789;23;20019;-86
2022/10/11 06:29:12;;;;;;;17.63;4.55;;;;;;;;;;6002545;23;20020;-85
2022/10/11 06:35:12;;;;;;;17.55;4.43;;;;;;;;;;6175668;23;20016;-85
2022/10/11 06:40:51;;;;;;;16.83;4.70;;;;;;;;;;6230939;23;20020;-85
2022/10/11 06:43:22;;;;;;;13.23;4.07;;;;;;;;;;6241016;23;20105;-85
2022/10/11 06:46:16;;;;;;;9.77;3.92;;;;;;;;;;6223565;23;20059;-85
2022/10/11 06:52:52;;;;;;;15.05;5.65;;;;;;;;;;6114812;23;20030;-85
2022/10/11 06:55:23;;;;;;;12.82;4.22;;;;;;;;;;6235296;23;20611;-86
2022/10/11 06:58:10;;;;;;;10.18;3.92;;;;;;;;;;6240233;23;20023;-85
2022/10/11 07:03:34;;;;;;;15.45;4.22;;;;;;;;;;6249634;23;20012;-85
2022/10/11 07:06:19;;;;;;;7.45;4.53;;;;;;;;;;6212295;23;20032;-85
2022/10/11 07:09:21;;;;;;;12.65;4.05;;;;;;;;;;6239933;23;20454;-85
2022/10/11 07:12:10;;;;;;;12.13;4.18;;;;;;;;;;6233688;23;20012;-86
2022/10/11 07:18:23;;;;;;;17.05;5.57;;;;;;;;;;6146697;23;20052;-86
2022/10/11 07:24:19;;;;;;;14.50;4.70;;;;;;;;;;6236859;23;20107;-86
2022/10/11 07:27:02;;;;;;;16.05;4.93;;;;;;;;;;6221259;23;20016;-85
2022/10/11 07:29:42;;;;;;;17.45;6.38;;;;;;;;;;6237137;23;20043;-85
2022/10/11 07:32:09;;;;;;;12.75;5.03;;;;;;;;;;6238119;23;20858;-85
2022/10/11 07:34:36;;;;;;;12.80;5.25;;;;;;;;;;6210773;23;20020;-87
2022/10/11 07:37:46;;;;;;;;;;;;;;;;;;;;;
2022/10/11 07:40:30;;;;;;;12.25;5.70;;;;;;;;;;6220744;23;20428;-86
2022/10/11 07:46:10;;;;;;;13.68;4.97;;;;;;;;;;6229841;23;20098;-86
2022/10/11 07:48:59;;;;;;;13.15;5.25;;;;;;;;;;6239740;23;20016;-86
2022/10/11 07:51:54;;;;;;;12.65;5.20;;;;;;;;;;6223290;23;20020;-85
2022/10/11 07:54:46;;;;;;;20.48;7.00;;;;;;;;;;6209799;23;20102;-86
2022/10/11 08:00:20;;;;;;;16.10;6.82;;;;;;;;;;6156267;23;20022;-85
2022/10/11 08:03:07;;;;;;;29.48;8.52;;;;;;;;;;6146122;23;20024;-85
2022/10/11 08:08:45;;;;;;;20.85;7.15;;;;;;;;;;6166276;23;20069;-86
2022/10/11 08:11:55;;;;;;;20.50;6.30;;;;;;;;;;6154558;23;20029;-86
2022/10/11 08:14:22;;;;;;;21.38;6.38;;;;;;;;;;6163404;23;20020;-86
2022/10/11 08:17:38;;;;;;;28.05;7.05;;;;;;;;;;6236852;23;20082;-86
2022/10/11 08:20:23;;;;;;;29.20;7.28;;;;;;;;;;6126780;23;20574;-85
2022/10/11 08:23:08;;;;;;;29.33;7.85;;;;;;;;;;6191890;23;20095;-86
2022/10/11 08:26:14;;;;;;;;;;;;;;;;;;;;;
2022/10/11 08:32:24;;;;;;;;;;;;;;;;;;;;;
2022/10/11 08:37:56;;;;;;;28.85;6.18;;;;;;;;;;6209005;23;20020;-87
2022/10/11 08:40:45;;;;;;;26.27;6.22;;;;;;;;;;6238744;23;20027;-85
2022/10/11 08:43:44;;;;;;;28.42;6.30;;;;;;;;;;6236275;23;20028;-85
2022/10/11 08:49:23;;;;;;;30.60;6.88;;;;;;;;;;6238500;23;20070;-86
2022/10/11 08:52:36;;;;;;;;;;;;;;;;;;;;;
2022/10/11 08:58:28;;;;;;;27.92;5.80;;;;;;;;;;6211209;23;20040;-85
2022/10/11 09:01:32;;;;;;;;;;;;;;;;;;;;;
2022/10/11 09:04:16;;;;;;;26.30;4.68;;;;;;;;;;6206956;23;20020;-86
2022/10/11 09:06:55;;;;;;;26.27;4.95;;;;;;;;;;6180714;23;20099;-86
2022/10/11 09:12:34;;;;;;;21.05;5.18;;;;;;;;;;6201888;23;20120;-86
2022/10/11 09:37:11;;;;;;;25.00;4.82;;;;;;;;;;6205901;23;20028;-84
2022/10/11 09:43:34;;;;;;;22.67;3.85;;;;;;;;;;6202921;23;20358;-87
2022/10/11 09:55:37;;;;;;;20.80;4.20;;;;;;;;;;6209318;23;20031;-85
2022/10/11 10:05:00;;;;;;;24.45;4.40;;;;;;;;;;6240145;23;20534;-85
2022/10/11 10:07:50;;;;;;;31.20;5.93;;;;;;;;;;6212958;23;20020;-84
2022/10/11 10:11:00;;;;;;;19.48;4.57;;;;;;;;;;6251362;23;20112;-85
2022/10/11 10:13:49;;;;;;;30.42;5.15;;;;;;;;;;6212957;23;20108;-84
2022/10/11 10:16:40;;;;;;;19.75;4.32;;;;;;;;;;6187503;23;20350;-84
2022/10/11 10:22:24;;;;;;;19.60;3.70;;;;;;;;;;6249325;23;20134;-83
2022/10/11 10:25:08;;;;;;;21.20;4.70;;;;;;;;;;6213359;23;20162;-85
2022/10/11 10:27:55;;;;;;;29.10;4.63;;;;;;;;;;6210859;23;20028;-84
2022/10/11 10:33:12;;;;;;;25.45;3.70;;;;;;;;;;6212520;23;20020;-84
2022/10/11 10:38:52;;;;;;;19.75;4.25;;;;;;;;;;6210841;23;20649;-84
2022/10/11 10:41:37;;;;;;;26.00;4.03;;;;;;;;;;6248851;23;20099;-84
2022/10/11 10:50:33;;;;;;;;;;;;;;;;;;;;;
2022/10/11 10:53:35;;;;;;;25.83;3.88;;;;;;;;;;6238820;23;20089;-85
2022/10/11 10:56:19;;;;;;;;;;;;;;;;;;;;;
2022/10/11 10:58:57;;;;;;;21.65;4.30;;;;;;;;;;6226944;23;20038;-85
2022/10/11 11:01:40;;;;;;;22.83;3.97;;;;;;;;;;6186926;23;20016;-84
2022/10/11 11:04:09;;;;;;;;;;;;;;;;;;6180440;23;20024;-84
2022/10/11 11:07:00;;;;;;;18.10;4.10;;;;;;;;;;6209681;23;19958;-85
2022/10/11 11:12:54;;;;;;;18.55;3.58;;;;;;;;;;6164540;23;20130;-84
2022/10/11 11:15:40;;;;;;;18.70;3.05;;;;;;;;;;6189754;23;20556;-85
2022/10/11 11:18:43;;;;;;;;;;;;;;;;;;;;;
2022/10/11 11:24:58;;;;;;;;;;;;;;;;;;;;;
2022/10/11 11:28:25;;;;;;;;;;;;;;;;;;;;;
2022/10/11 11:31:20;;;;;;;20.30;3.42;;;;;;;;;;6206901;23;20090;-86
2022/10/11 11:34:26;;;;;;;16.88;2.80;;;;;;;;;;6180185;23;20020;-85
2022/10/11 11:37:21;;;;;;;16.23;2.92;;;;;;;;;;6217210;23;20016;-86
2022/10/11 11:57:57;;;;;;;15.73;3.10;;;;;;;;;;6218781;23;20012;-85
2022/10/11 12:09:56;;;;;;;12.25;2.70;;;;;;;;;;6114170;23;20018;-86
2022/10/11 12:16:11;;;;;;;15.18;2.50;;;;;;;;;;6211313;23;20024;-85
2022/10/11 12:19:10;;;;;;;15.57;3.20;;;;;;;;;;6248615;23;20016;-86
2022/10/11 12:22:13;;;;;;;;;;;;;;;;;;;;;
2022/10/11 12:28:23;;;;;;;14.77;2.17;;;;;;;;;;6236464;23;20480;-85
2022/10/11 12:37:58;;;;;;;;;;;;;;;;;;;;;
2022/10/11 12:40:48;;;;;;;11.68;2.35;;;;;;;;;;6237344;23;20074;-86
2022/10/11 12:43:56;;;;;;;20.33;3.70;;;;;;;;;;6248667;23;20020;-86
2022/10/11 12:55:46;;;;;;;20.02;3.85;;;;;;;;;;6216738;23;20034;-85
2022/10/11 13:02:21;;;;;;;;;;;;;;;;;;;;;
2022/10/11 13:11:40;;;;;;;;;;;;;;;;;;;;;
2022/10/11 13:14:33;;;;;;;14.80;3.25;;;;;;;;;;6164092;23;20024;-86
2022/10/11 13:26:15;;;;;;;27.73;3.55;;;;;;;;;;6002071;23;20037;-85
2022/10/11 13:29:15;;;;;;;11.70;3.13;;;;;;;;;;6117267;23;20713;-86
2022/10/11 13:32:11;;;;;;;;;;;;;;;;;;;;;
2022/10/11 13:34:59;;;;;;;17.67;2.50;;;;;;;;;;6136722;23;20021;-85
2022/10/11 13:37:51;;;;;;;15.23;3.10;;;;;;;;;;6182499;23;20534;-86
2022/10/11 13:40:36;;;;;;;19.58;3.38;;;;;;;;;;6203533;23;20031;-86
2022/10/11 13:43:12;;;;;;;15.98;3.35;;;;;;;;;;6145459;23;20112;-85
2022/10/11 13:45:52;;;;;;;14.27;3.17;;;;;;;;;;6208433;23;20040;-86
2022/10/11 13:48:46;;;;;;;13.32;2.95;;;;;;;;;;6207876;23;20350;-84
2022/10/11 13:54:41;;;;;;;20.15;3.95;;;;;;;;;;6162153;23;20021;-85
2022/10/11 13:57:44;;;;;;;;;;;;;;;;;;;;;
2022/10/11 14:00:47;;;;;;;20.58;4.03;;;;;;;;;;6125641;23;20053;-85
2022/10/11 14:03:46;;;;;;;20.10;3.60;;;;;;;;;;6132240;23;20346;-85
2022/10/11 14:06:43;;;;;;;15.43;3.45;;;;;;;;;;6207477;23;20419;-86
2022/10/11 14:09:39;;;;;;;15.73;3.60;;;;;;;;;;6220282;23;20085;-86
2022/10/11 14:12:27;;;;;;;17.58;2.80;;;;;;;;;;6157167;23;20016;-85
2022/10/11 14:15:11;;;;;;;17.95;3.72;;;;;;;;;;6208234;23;20028;-86
2022/10/11 14:17:46;;;;;;;15.35;3.13;;;;;;;;;;6174529;23;20016;-85
2022/10/11 14:20:38;;;;;;;18.15;2.88;;;;;;;;;;6209622;23;20020;-85
2022/10/11 14:23:15;;;;;;;37.25;9.80;;;;;;;;;;6208199;23;20020;-85
2022/10/11 14:38:52;;;;;;;17.85;3.05;;;;;;;;;;6149085;23;20020;-86
2022/10/11 14:48:00;;;;;;;13.85;3.33;;;;;;;;;;6195325;23;20016;-86
2022/10/11 14:50:47;;;;;;;15.48;2.70;;;;;;;;;;6137915;23;20022;-87
2022/10/11 14:57:03;;;;;;;;;;;;;;;;;;;;;
2022/10/11 15:00:10;;;;;;;13.75;2.60;;;;;;;;;;6210209;23;20391;-87
2022/10/11 15:02:44;;;;;;;13.57;2.65;;;;;;;;;;6236488;23;20023;-85
2022/10/11 15:05:11;;;;;;;15.05;2.80;;;;;;;;;;6210577;23;20012;-85
2022/10/11 15:07:37;;;;;;;17.20;3.00;;;;;;;;;;6237015;23;20074;-85
2022/10/11 15:10:22;;;;;;;11.15;2.03;;;;;;;;;;6210902;23;20354;-87
2022/10/11 15:13:03;;;;;;;14.75;2.92;;;;;;;;;;6237617;23;20024;-85
2022/10/11 15:15:49;;;;;;;14.50;3.10;;;;;;;;;;6184880;23;20026;-84
2022/10/11 15:18:24;;;;;;;19.73;2.80;;;;;;;;;;6225406;23;20104;-85
2022/10/11 15:27:02;;;;;;;20.20;4.00;;;;;;;;;;6227220;23;20083;-84
2022/10/11 15:29:35;;;;;;;14.48;3.13;;;;;;;;;;6207109;23;20013;-84
2022/10/11 15:32:19;;;;;;;16.33;4.05;;;;;;;;;;6234065;23;20020;-84
2022/10/11 15:35:12;;;;;;;20.88;4.30;;;;;;;;;;6228419;23;20024;-84
2022/10/11 15:37:42;;;;;;;22.10;3.75;;;;;;;;;;6234141;23;20016;-84
2022/10/11 15:40:26;;;;;;;13.75;3.55;;;;;;;;;;6209240;23;20086;-84
2022/10/11 15:43:09;;;;;;;;;;;;;;;;;;;;;
2022/10/11 15:45:39;;;;;;;17.45;3.17;;;;;;;;;;6219090;23;20099;-85
2022/10/11 15:48:28;;;;;;;17.25;4.13;;;;;;;;;;6210434;23;20051;-84
2022/10/11 15:54:06;;;;;;;19.73;3.83;;;;;;;;;;6228064;23;20327;-83
2022/10/11 15:56:36;;;;;;;18.58;5.10;;;;;;;;;;6236875;23;20083;-84
2022/10/11 15:59:13;;;;;;;19.25;4.90;;;;;;;;;;6221881;23;20024;-84
2022/10/11 16:01:48;;;;;;;25.23;4.93;;;;;;;;;;6211088;23;20020;-85
2022/10/11 16:04:32;;;;;;;21.42;4.82;;;;;;;;;;6237357;23;20020;-85
2022/10/11 16:07:07;;;;;;;19.63;5.53;;;;;;;;;;6237603;23;20628;-85
2022/10/11 16:09:59;;;;;;;17.88;6.20;;;;;;;;;;6184050;23;20040;-86
2022/10/11 16:12:27;;;;;;;22.75;6.53;;;;;;;;;;6225808;23;20518;-86
2022/10/11 16:15:03;;;;;;;24.02;8.80;;;;;;;;;;6237781;23;20016;-86
2022/10/11 16:17:53;;;;;;;30.95;10.70;;;;;;;;;;6236936;23;20020;-85
2022/10/11 16:20:34;;;;;;;28.55;11.00;;;;;;;;;;6211146;23;20020;-86
2022/10/11 16:33:00;;;;;;;18.75;4.95;;;;;;;;;;6095021;23;20193;-85
2022/10/11 16:39:13;;;;;;;16.98;5.40;;;;;;;;;;6126469;23;20535;-86
2022/10/11 16:42:09;;;;;;;19.15;5.70;;;;;;;;;;6226190;23;20027;-86
2022/10/11 16:45:01;;;;;;;20.85;5.70;;;;;;;;;;6236332;23;20043;-86
2022/10/11 16:47:58;;;;;;;19.05;4.05;;;;;;;;;;6163688;23;20024;-86
2022/10/11 16:50:35;;;;;;;20.98;4.40;;;;;;;;;;6208002;23;20127;-86
2022/10/11 16:56:58;;;;;;;22.70;4.93;;;;;;;;;;6149344;23;20024;-85
2022/10/11 16:59:29;;;;;;;18.00;4.90;;;;;;;;;;6236214;23;20462;-84
2022/10/11 17:02:47;;;;;;;23.40;5.13;;;;;;;;;;6233617;23;20024;-85
2022/10/11 17:05:18;;;;;;;13.00;4.03;;;;;;;;;;6234652;23;20016;-85
2022/10/11 17:26:23;;;;;;;15.50;4.20;;;;;;;;;;6244087;23;20020;-87
2022/10/11 17:29:24;;;;;;;26.50;5.55;;;;;;;;;;6209059;23;20020;-87
2022/10/11 17:32:24;;;;;;;12.55;3.75;;;;;;;;;;6246400;23;20457;-87
2022/10/11 17:38:51;;;;;;;;;;;;;;;;;;;;;
2022/10/11 17:42:03;;;;;;;15.00;4.38;;;;;;;;;;6210424;23;20493;-86
2022/10/11 17:44:48;;;;;;;17.20;4.63;;;;;;;;;;6236163;23;20020;-86
2022/10/11 17:47:41;;;;;;;17.80;4.57;;;;;;;;;;6233413;23;20022;-85
2022/10/11 17:50:22;;;;;;;17.73;5.28;;;;;;;;;;6231154;23;20024;-87
2022/10/11 17:52:49;;;;;;;14.15;4.85;;;;;;;;;;6212432;23;20020;-86
2022/10/11 17:58:36;;;;;;;15.60;5.00;;;;;;;;;;6238778;23;20099;-86
2022/10/11 18:01:27;;;;;;;19.45;4.93;;;;;;;;;;6210863;23;20016;-86
2022/10/11 18:07:34;;;;;;;21.17;4.28;;;;;;;;;;6123977;23;20046;-87
2022/10/11 18:10:20;;;;;;;13.82;3.60;;;;;;;;;;6151639;23;20352;-86
2022/10/11 18:12:51;;;;;;;20.10;4.15;;;;;;;;;;6236799;23;20039;-85
2022/10/11 18:15:44;;;;;;;20.67;3.15;;;;;;;;;;6238261;23;20023;-84
2022/10/11 18:18:17;;;;;;;14.45;2.95;;;;;;;;;;6237202;23;20035;-86
2022/10/11 18:20:56;;;;;;;19.25;3.53;;;;;;;;;;6237390;23;20035;-85
2022/10/11 18:23:44;;;;;;;11.40;3.38;;;;;;;;;;6249127;23;20016;-86
2022/10/11 18:26:30;;;;;;;29.73;3.88;;;;;;;;;;6211325;23;20024;-86
2022/10/11 18:29:19;;;;;;;14.60;2.63;;;;;;;;;;6191063;23;20350;-86
2022/10/11 18:32:10;;;;;;;15.23;3.40;;;;;;;;;;6236294;23;20028;-86
2022/10/11 18:34:54;;;;;;;12.85;3.70;;;;;;;;;;6236489;23;20263;-86
2022/10/11 18:37:26;;;;;;;18.00;3.80;;;;;;;;;;6237904;23;20016;-87
2022/10/11 18:40:15;;;;;;;21.85;3.55;;;;;;;;;;6237289;23;20047;-86
2022/10/11 18:42:57;;;;;;;18.45;5.70;;;;;;;;;;6236674;23;20051;-86
2022/10/11 18:45:34;;;;;;;20.60;4.20;;;;;;;;;;6209876;23;20016;-85
2022/10/11 18:51:44;;;;;;;18.52;4.97;;;;;;;;;;6231299;23;20031;-86
2022/10/11 18:54:12;;;;;;;20.20;4.63;;;;;;;;;;6198723;23;20116;-84
2022/10/11 18:59:50;;;;;;;;;;;;;;;;;;;;;
2022/10/11 19:02:39;;;;;;;16.00;4.70;;;;;;;;;;6169370;23;20020;-85
2022/10/11 19:08:40;;;;;;;18.00;4.32;;;;;;;;;;6134177;23;20024;-86
2022/10/11 19:11:11;;;;;;;17.27;4.60;;;;;;;;;;6206687;23;20021;-85
2022/10/11 19:14:10;;;;;;;16.30;4.15;;;;;;;;;;6177819;23;20023;-86
2022/10/11 19:16:59;;;;;;;10.60;3.55;;;;;;;;;;6203895;23;20131;-86
2022/10/11 19:19:50;;;;;;;15.65;4.50;;;;;;;;;;6092170;23;20094;-86
2022/10/11 19:25:38;;;;;;;;;;;;;;;;;;;;;
2022/10/11 19:28:36;;;;;;;17.10;4.80;;;;;;;;;;6178794;23;20120;-86
2022/10/11 19:34:37;;;;;;;10.35;4.35;;;;;;;;;;6114584;23;20025;-87
2022/10/11 19:37:25;;;;;;;15.32;4.32;;;;;;;;;;6111874;23;20028;-87
2022/10/11 19:40:04;;;;;;;;;;;;;;;;;;;;;
2022/10/11 19:43:14;;;;;;;19.10;4.78;;;;;;;;;;6205556;23;20024;-86
2022/10/11 19:45:42;;;;;;;14.32;4.10;;;;;;;;;;6206613;23;20023;-86
2022/10/11 19:48:16;;;;;;;14.93;4.07;;;;;;;;;;6179800;23;20020;-86
2022/10/11 19:54:01;;;;;;;21.17;4.88;;;;;;;;;;6216808;23;20099;-86
2022/10/11 19:56:35;;;;;;;14.75;4.30;;;;;;;;;;6206151;23;20519;-85
2022/10/11 19:59:25;;;;;;;18.48;5.18;;;;;;;;;;6205642;23;20016;-85
2022/10/11 20:02:01;;;;;;;15.02;4.55;;;;;;;;;;6197860;23;20395;-84
2022/10/11 20:04:51;;;;;;;11.18;4.03;;;;;;;;;;6228331;23;20114;-83
2022/10/11 20:07:27;;;;;;;18.20;4.78;;;;;;;;;;6235407;23;20012;-85
2022/10/11 20:10:03;;;;;;;;;;;;;;;;;;6245441;23;20020;-85
2022/10/11 20:13:12;;;;;;;14.18;5.25;;;;;;;;;;6234474;23;19919;-84
2022/10/11 20:15:44;;;;;;;15.52;5.80;;;;;;;;;;6209770;23;20027;-85
2022/10/11 20:18:11;;;;;;;22.80;5.43;;;;;;;;;;6236761;23;20019;-85
2022/10/11 20:21:07;;;;;;;18.27;6.30;;;;;;;;;;6236224;23;20066;-84
2022/10/11 20:23:50;;;;;;;22.25;5.95;;;;;;;;;;6235787;23;20020;-85
2022/10/11 20:26:48;;;;;;;14.27;6.00;;;;;;;;;;6210209;23;20070;-84
2022/10/11 20:29:28;;;;;;;22.08;7.35;;;;;;;;;;6219090;23;20027;-85
2022/10/11 20:35:15;;;;;;;;;;;;;;;;;;;;;
2022/10/11 20:38:20;;;;;;;30.40;8.48;;;;;;;;;;6245833;23;20023;-86
2022/10/11 20:44:04;;;;;;;27.08;9.60;;;;;;;;;;6125691;23;20029;-85
2022/10/11 20:46:48;;;;;;;28.92;9.05;;;;;;;;;;6208257;23;20035;-85
2022/10/11 20:49:19;;;;;;;26.00;9.45;;;;;;;;;;6236096;23;20722;-86
2022/10/11 20:51:50;;;;;;;20.85;10.82;;;;;;;;;;6238644;23;20047;-85
2022/10/11 20:54:34;;;;;;;23.42;11.80;;;;;;;;;;6236206;23;20020;-84
2022/10/11 20:57:11;;;;;;;;;;;;;;;;;;;;;
2022/10/11 21:00:30;;;;;;;22.90;8.70;;;;;;;;;;6241420;23;20016;-84
2022/10/11 21:06:22;;;;;;;21.63;9.15;;;;;;;;;;6195859;23;20012;-84
2022/10/11 21:09:14;;;;;;;21.02;7.43;;;;;;;;;;6209512;23;20052;-83
2022/10/11 21:11:46;;;;;;;15.65;7.70;;;;;;;;;;6236766;23;20020;-84
2022/10/11 21:17:47;;;;;;;21.95;6.85;;;;;;;;;;6198692;23;20051;-84
2022/10/11 21:20:20;;;;;;;17.40;5.13;;;;;;;;;;6235025;23;20012;-85
2022/10/11 21:23:22;;;;;;;15.93;4.35;;;;;;;;;;6236969;23;20275;-84
2022/10/11 21:26:02;;;;;;;19.08;3.67;;;;;;;;;;6221273;23;20144;-84
2022/10/11 21:28:45;;;;;;;14.75;3.50;;;;;;;;;;6247460;23;20016;-84
2022/10/11 21:31:16;;;;;;;9.45;3.20;;;;;;;;;;6236821;23;20023;-84
2022/10/11 21:39:52;;;;;;;19.13;4.57;;;;;;;;;;6213012;23;20565;-85
2022/10/11 21:42:36;;;;;;;13.00;4.25;;;;;;;;;;6213126;23;20074;-83
2022/10/11 21:51:27;;;;;;;19.48;3.20;;;;;;;;;;6172883;23;20023;-85
2022/10/11 21:57:13;;;;;;;;;;;;;;;;;;;;;
2022/10/11 21:59:40;;;;;;;11.88;3.30;;;;;;;;;;6238466;23;20024;-85
2022/10/11 22:05:56;;;;;;;21.98;5.28;;;;;;;;;;6214246;23;20032;-84
2022/10/11 22:08:53;;;;;;;15.80;5.22;;;;;;;;;;6241515;23;20009;-85
2022/10/11 22:11:37;;;;;;;16.52;5.85;;;;;;;;;;6239424;23;20031;-85
2022/10/11 22:14:18;;;;;;;20.55;6.95;;;;;;;;;;6212411;23;20020;-84
2022/10/11 22:16:52;;;;;;;33.50;9.95;;;;;;;;;;6238640;23;20099;-84
2022/10/11 22:22:35;;;;;;;30.38;9.38;;;;;;;;;;6240434;23;20255;-84
2022/10/11 22:25:11;;;;;;;30.30;10.18;;;;;;;;;;6237983;23;20012;-85
2022/10/11 22:31:04;;;;;;;26.42;8.82;;;;;;;;;;6126616;23;20017;-85
2022/10/11 22:33:41;;;;;;;26.98;7.18;;;;;;;;;;6248827;23;20074;-85
2022/10/11 22:36:37;;;;;;;23.08;7.72;;;;;;;;;;6210671;23;20020;-86
2022/10/11 22:39:06;;;;;;;17.55;6.07;;;;;;;;;;6237983;23;20028;-86
2022/10/11 22:41:44;;;;;;;14.20;5.25;;;;;;;;;;6211820;23;20031;-85
2022/10/11 22:44:31;;;;;;;17.90;4.53;;;;;;;;;;6239300;23;20462;-85
2022/10/11 22:47:18;;;;;;;17.50;4.13;;;;;;;;;;6210432;23;20316;-84
2022/10/11 22:50:00;;;;;;;15.98;3.78;;;;;;;;;;6239168;23;20083;-86
2022/10/11 22:52:27;;;;;;;10.63;3.20;;;;;;;;;;6213548;23;20457;-86
2022/10/11 22:57:38;;;;;;;9.80;3.22;;;;;;;;;;6213868;23;20020;-86
2022/10/11 23:00:36;;;;;;;18.70;4.13;;;;;;;;;;6250437;23;20627;-85
2022/10/11 23:03:07;;;;;;;17.33;4.60;;;;;;;;;;6117534;23;20476;-84
2022/10/11 23:09:00;;;;;;;22.10;5.05;;;;;;;;;;6218054;23;20104;-86
2022/10/11 23:12:12;;;;;;;;;;;;;;;;;;;;;
2022/10/11 23:15:22;;;;;;;;;;;;;;;;;;;;;
2022/10/11 23:21:12;;;;;;;19.27;5.15;;;;;;;;;;6117501;23;20100;-85
2022/10/11 23:27:21;;;;;;;19.50;4.93;;;;;;;;;;6005541;23;20030;-85
2022/10/11 23:33:03;;;;;;;22.02;5.20;;;;;;;;;;6060240;23;20042;-85
2022/10/11 23:35:30;;;;;;;21.58;5.13;;;;;;;;;;6056881;23;20602;-86
2022/10/11 23:44:20;;;;;;;17.67;4.68;;;;;;;;;;6195864;23;20021;-86
2022/10/11 23:47:10;;;;;;;10.00;4.18;;;;;;;;;;6113286;23;20168;-86
2022/10/11 23:52:44;;;;;;;17.20;5.07;;;;;;;;;;6021881;23;20024;-86
2022/10/11 23:55:16;;;;;;;22.23;4.93;;;;;;;;;;6180183;23;20321;-86
